createdAt,value
2019-01-16T06:44:27.853Z,995.53
2019-01-16T06:45:27.821Z,995.49
2019-01-16T06:46:27.864Z,995.48
2019-01-16T06:47:27.815Z,995.43
2019-01-16T06:48:27.797Z,995.38
2019-01-16T06:49:27.769Z,995.44
2019-01-16T06:50:27.763Z,995.50
2019-01-16T06:51:27.758Z,995.39
2019-01-16T06:52:28.215Z,995.32
2019-01-16T06:53:27.728Z,995.41
2019-01-16T06:54:27.720Z,995.36
2019-01-16T06:55:27.703Z,995.41
2019-01-16T06:56:27.690Z,995.41
2019-01-16T06:57:29.009Z,995.39
2019-01-16T06:58:27.688Z,995.40
2019-01-16T06:59:27.677Z,995.40
2019-01-16T07:00:27.652Z,995.42
2019-01-16T07:01:27.649Z,995.41
2019-01-16T07:02:27.639Z,995.34
2019-01-16T07:03:27.659Z,995.39
2019-01-16T07:04:27.613Z,995.39
2019-01-16T07:05:27.627Z,995.38
2019-01-16T07:06:27.608Z,995.33
2019-01-16T07:07:27.585Z,995.34
2019-01-16T07:08:27.582Z,995.41
2019-01-16T07:09:27.560Z,995.42
2019-01-16T07:10:27.984Z,995.42
2019-01-16T07:11:27.561Z,995.41
2019-01-16T07:12:27.518Z,995.45
2019-01-16T07:13:27.513Z,995.39
2019-01-16T07:14:28.402Z,995.37
2019-01-16T07:15:27.487Z,995.38
2019-01-16T07:16:27.482Z,995.39
2019-01-16T07:17:27.480Z,995.36
2019-01-16T07:18:27.455Z,995.36
2019-01-16T07:19:27.612Z,995.34
2019-01-16T07:20:27.430Z,995.32
2019-01-16T07:21:27.429Z,995.34
2019-01-16T07:22:27.413Z,995.26
2019-01-16T07:23:27.417Z,995.33
2019-01-16T07:24:27.413Z,995.33
2019-01-16T07:25:27.381Z,995.36
2019-01-16T07:26:27.377Z,995.36
2019-01-16T07:27:27.383Z,995.37
2019-01-16T07:28:27.406Z,995.34
2019-01-16T07:29:27.416Z,995.29
2019-01-16T07:30:28.046Z,995.29
2019-01-16T07:31:27.382Z,995.24
2019-01-16T07:32:27.299Z,995.38
2019-01-16T07:33:27.325Z,995.24
2019-01-16T07:34:27.279Z,995.27
2019-01-16T07:35:27.325Z,995.32
2019-01-16T07:36:27.281Z,995.32
2019-01-16T07:37:27.252Z,995.28
2019-01-16T07:38:27.260Z,995.32
2019-01-16T07:39:27.241Z,995.31
2019-01-16T07:40:27.312Z,995.31
2019-01-16T07:41:27.241Z,995.33
2019-01-16T07:42:27.221Z,995.29
2019-01-16T07:43:27.336Z,995.31
2019-01-16T07:44:27.234Z,995.31
2019-01-16T07:45:29.883Z,995.35
2019-01-16T07:46:27.232Z,995.37
2019-01-16T07:47:27.177Z,995.30
2019-01-16T07:48:27.144Z,995.26
2019-01-16T07:49:27.175Z,995.27
2019-01-16T07:50:27.120Z,995.28
2019-01-16T07:51:27.130Z,995.23
2019-01-16T07:52:27.141Z,995.27
2019-01-16T07:53:27.146Z,995.26
2019-01-16T07:54:27.120Z,995.24
2019-01-16T07:55:27.217Z,995.19
2019-01-16T07:56:27.139Z,995.21
2019-01-16T07:57:27.076Z,995.21
2019-01-16T07:58:27.101Z,995.24
2019-01-16T07:59:27.059Z,995.26
2019-01-16T08:00:27.053Z,995.20
2019-01-16T08:01:29.147Z,995.18
2019-01-16T08:02:27.055Z,995.20
2019-01-16T08:03:28.038Z,995.22
2019-01-16T08:04:27.022Z,995.26
2019-01-16T08:05:27.029Z,995.22
2019-01-16T08:06:26.964Z,995.19
2019-01-16T08:07:26.963Z,995.20
2019-01-16T08:08:27.038Z,995.12
2019-01-16T08:09:26.938Z,995.14
2019-01-16T08:10:26.912Z,995.15
2019-01-16T08:11:26.941Z,995.15
2019-01-16T08:12:26.866Z,995.14
2019-01-16T08:13:26.898Z,995.21
2019-01-16T08:14:26.891Z,995.21
2019-01-16T08:15:26.887Z,995.24
2019-01-16T08:16:26.842Z,995.24
2019-01-16T08:17:26.815Z,995.28
2019-01-16T08:18:30.448Z,995.23
2019-01-16T08:19:26.924Z,995.19
2019-01-16T08:20:26.825Z,995.21
2019-01-16T08:21:26.777Z,995.16
2019-01-16T08:22:26.761Z,995.14
2019-01-16T08:23:26.760Z,995.14
2019-01-16T08:24:26.816Z,995.13
2019-01-16T08:25:26.768Z,995.10
2019-01-16T08:26:26.725Z,995.17
2019-01-16T08:27:26.713Z,995.12
2019-01-16T08:28:26.702Z,995.12
2019-01-16T08:29:26.682Z,995.15
2019-01-16T08:30:35.558Z,995.16
2019-01-16T08:31:51.762Z,995.26
2019-01-16T08:32:51.736Z,995.32
2019-01-16T08:33:51.730Z,995.30
2019-01-16T08:34:51.728Z,995.29
2019-01-16T08:35:51.725Z,995.35
2019-01-16T08:36:51.722Z,995.29
2019-01-16T08:37:51.674Z,995.33
2019-01-16T08:38:51.738Z,995.33
2019-01-16T08:39:51.663Z,995.35
2019-01-16T08:40:51.665Z,995.33
2019-01-16T08:41:51.682Z,995.38
2019-01-16T08:42:51.672Z,995.29
2019-01-16T08:43:51.611Z,995.33
2019-01-16T08:44:51.623Z,995.34
2019-01-16T08:45:51.588Z,995.30
2019-01-16T08:46:53.259Z,995.31
2019-01-16T08:47:51.622Z,995.29
2019-01-16T08:48:51.685Z,995.28
2019-01-16T08:49:51.583Z,995.24
2019-01-16T08:50:51.588Z,995.19
2019-01-16T08:51:51.560Z,995.23
2019-01-16T08:52:51.589Z,995.26
2019-01-16T08:53:51.524Z,995.25
2019-01-16T08:54:51.493Z,995.24
2019-01-16T08:55:51.589Z,995.16
2019-01-16T08:56:51.476Z,995.19
2019-01-16T08:57:51.476Z,995.25
2019-01-16T08:58:51.518Z,995.24
2019-01-16T08:59:51.475Z,995.26
2019-01-16T09:00:51.464Z,995.21
2019-01-16T09:01:51.461Z,995.18
2019-01-16T09:02:51.782Z,995.14
2019-01-16T09:03:51.451Z,995.14
2019-01-16T09:04:51.465Z,995.13
2019-01-16T09:05:51.393Z,995.12
2019-01-16T09:06:51.441Z,995.14
2019-01-16T09:07:51.419Z,995.11
2019-01-16T09:08:51.432Z,994.99
2019-01-16T09:09:52.406Z,995.00
2019-01-16T09:10:52.441Z,994.98
2019-01-16T09:11:51.378Z,994.94
2019-01-16T09:12:51.294Z,994.96
2019-01-16T09:13:51.293Z,994.95
2019-01-16T09:14:51.298Z,994.95
2019-01-16T09:15:51.311Z,994.99
2019-01-16T09:16:51.249Z,994.97
2019-01-16T09:17:54.288Z,994.93
2019-01-16T09:18:51.308Z,995.02
2019-01-16T09:19:51.259Z,995.03
2019-01-16T09:20:51.266Z,995.03
2019-01-16T09:21:51.220Z,994.96
2019-01-16T09:22:51.236Z,995.00
2019-01-16T09:23:51.197Z,994.97
2019-01-16T09:24:51.245Z,994.97
2019-01-16T09:25:51.207Z,994.93
2019-01-16T09:26:51.180Z,994.94
2019-01-16T09:27:51.181Z,995.05
2019-01-16T09:28:52.289Z,995.03
2019-01-16T09:29:51.172Z,995.00
2019-01-16T09:30:51.167Z,994.98
2019-01-16T09:31:51.153Z,995.02
2019-01-16T09:32:51.112Z,995.06
2019-01-16T09:33:51.095Z,995.08
2019-01-16T09:34:51.157Z,995.06
2019-01-16T09:35:51.122Z,995.02
2019-01-16T09:36:51.089Z,994.95
2019-01-16T09:37:51.026Z,995.02
2019-01-16T09:38:51.035Z,995.06
2019-01-16T09:39:51.055Z,995.02
2019-01-16T09:40:50.993Z,994.94
2019-01-16T09:41:52.091Z,994.96
2019-01-16T09:42:51.036Z,994.98
2019-01-16T09:43:51.029Z,995.01
2019-01-16T09:44:51.026Z,995.00
2019-01-16T09:45:50.998Z,994.98
2019-01-16T09:46:50.989Z,994.98
2019-01-16T09:47:50.985Z,994.95
2019-01-16T09:48:51.176Z,994.94
2019-01-16T09:49:50.994Z,994.92
2019-01-16T09:50:51.074Z,994.94
2019-01-16T09:51:50.946Z,994.90
2019-01-16T09:52:50.942Z,994.89
2019-01-16T09:53:51.019Z,994.91
2019-01-16T09:54:50.895Z,994.83
2019-01-16T09:55:50.931Z,994.80
2019-01-16T09:56:50.929Z,994.79
2019-01-16T09:57:50.842Z,994.75
2019-01-16T09:58:50.815Z,994.79
2019-01-16T09:59:50.919Z,994.75
2019-01-16T10:00:50.822Z,994.77
2019-01-16T10:01:50.856Z,994.69
2019-01-16T10:02:50.831Z,994.66
2019-01-16T10:03:50.803Z,994.66
2019-01-16T10:04:50.818Z,994.68
2019-01-16T10:05:50.821Z,994.69
2019-01-16T10:06:50.711Z,994.62
2019-01-16T10:07:50.774Z,994.65
2019-01-16T10:08:50.723Z,994.65
2019-01-16T10:09:50.729Z,994.62
2019-01-16T10:10:51.667Z,994.61
2019-01-16T10:11:50.699Z,994.55
2019-01-16T10:12:57.722Z,994.58
2019-01-16T10:14:15.959Z,994.53
2019-01-16T10:15:15.962Z,994.48
2019-01-16T10:16:21.030Z,994.49
2019-01-16T10:17:15.917Z,994.49
2019-01-16T10:18:15.886Z,994.47
2019-01-16T10:19:15.832Z,994.50
2019-01-16T10:20:15.866Z,994.43
2019-01-16T10:21:15.807Z,994.43
2019-01-16T10:22:19.123Z,994.44
2019-01-16T10:23:15.827Z,994.41
2019-01-16T10:24:15.823Z,994.38
2019-01-16T10:25:18.821Z,994.37
2019-01-16T10:26:15.761Z,994.32
2019-01-16T10:27:15.720Z,994.26
2019-01-16T10:28:15.709Z,994.21
2019-01-16T10:29:15.814Z,994.19
2019-01-16T10:30:15.685Z,994.19
2019-01-16T10:31:15.671Z,994.13
2019-01-16T10:32:15.687Z,994.10
2019-01-16T10:33:15.677Z,994.11
2019-01-16T10:34:15.699Z,994.09
2019-01-16T10:35:15.658Z,994.04
2019-01-16T10:36:15.679Z,994.01
2019-01-16T10:37:15.671Z,994.04
2019-01-16T10:38:15.620Z,993.97
2019-01-16T10:39:15.575Z,994.00
2019-01-16T10:40:16.976Z,993.95
2019-01-16T10:41:15.609Z,993.99
2019-01-16T10:42:15.554Z,993.92
2019-01-16T10:43:15.563Z,993.90
2019-01-16T10:44:15.559Z,993.89
2019-01-16T10:45:15.589Z,993.88
2019-01-16T10:46:15.547Z,993.84
2019-01-16T10:47:15.494Z,993.86
2019-01-16T10:48:16.002Z,993.79
2019-01-16T10:49:15.545Z,993.80
2019-01-16T10:50:15.603Z,993.75
2019-01-16T10:51:15.466Z,993.71
2019-01-16T10:52:15.444Z,993.71
2019-01-16T10:53:15.429Z,993.73
2019-01-16T10:54:15.433Z,993.72
2019-01-16T10:55:15.427Z,993.68
2019-01-16T10:56:15.405Z,993.67
2019-01-16T10:57:15.427Z,993.67
2019-01-16T10:58:15.420Z,993.63
2019-01-16T10:59:15.411Z,993.67
2019-01-16T11:01:15.353Z,993.71
2019-01-16T11:02:26.939Z,993.67
2019-01-16T11:03:40.804Z,993.65
2019-01-16T11:04:40.858Z,993.64
2019-01-16T11:05:41.815Z,993.61
2019-01-16T11:06:40.780Z,993.66
2019-01-16T11:07:40.862Z,993.65
2019-01-16T11:08:40.779Z,993.63
2019-01-16T11:09:40.737Z,993.64
2019-01-16T11:10:40.775Z,993.60
2019-01-16T11:11:42.131Z,993.58
2019-01-16T11:12:41.903Z,993.55
2019-01-16T11:13:40.709Z,993.53
2019-01-16T11:14:40.694Z,993.52
2019-01-16T11:15:51.746Z,993.52
2019-01-16T11:17:16.462Z,993.47
2019-01-16T11:18:16.482Z,993.44
2019-01-16T11:19:16.465Z,993.42
2019-01-16T11:20:16.474Z,993.36
2019-01-16T11:21:16.431Z,993.35
2019-01-16T11:22:16.435Z,993.38
2019-01-16T11:23:16.393Z,993.32
2019-01-16T11:24:16.398Z,993.29
2019-01-16T11:25:16.367Z,993.26
2019-01-16T11:26:16.358Z,993.28
2019-01-16T11:27:16.362Z,993.24
2019-01-16T11:28:16.347Z,993.21
2019-01-16T11:29:16.340Z,993.24
2019-01-16T11:30:16.376Z,993.12
2019-01-16T11:31:25.167Z,993.12
2019-01-16T11:32:56.267Z,993.13
2019-01-16T11:34:02.511Z,993.08
2019-01-16T11:35:21.566Z,993.01
2019-01-16T11:36:20.887Z,992.95
2019-01-16T11:37:21.294Z,992.97
2019-01-16T11:38:20.923Z,992.92
2019-01-16T11:39:20.856Z,992.89
2019-01-16T11:40:20.860Z,992.88
2019-01-16T11:41:20.834Z,992.86
2019-01-16T11:42:20.822Z,992.86
2019-01-16T11:43:21.811Z,992.91
2019-01-16T11:44:21.176Z,992.88
2019-01-16T11:45:20.807Z,992.89
2019-01-16T11:46:20.837Z,992.87
2019-01-16T11:47:20.759Z,992.84
2019-01-16T11:48:21.397Z,992.78
2019-01-16T11:49:20.741Z,992.77
2019-01-16T11:50:20.747Z,992.77
2019-01-16T11:51:20.726Z,992.73
2019-01-16T11:52:20.710Z,992.67
2019-01-16T11:53:20.700Z,992.63
2019-01-16T11:54:20.704Z,992.65
2019-01-16T11:55:21.075Z,992.64
2019-01-16T11:56:20.987Z,992.64
2019-01-16T11:57:20.665Z,992.60
2019-01-16T11:58:20.653Z,992.59
2019-01-16T11:59:20.636Z,992.57
2019-01-16T12:00:20.671Z,992.57
2019-01-16T12:01:20.612Z,992.57
2019-01-16T12:02:20.596Z,992.55
2019-01-16T12:03:20.643Z,992.53
2019-01-16T12:04:20.580Z,992.56
2019-01-16T12:05:23.356Z,992.55
2019-01-16T12:06:20.549Z,992.54
2019-01-16T12:07:20.598Z,992.52
2019-01-16T12:08:20.532Z,992.52
2019-01-16T12:09:20.571Z,992.49
2019-01-16T12:10:20.516Z,992.44
2019-01-16T12:11:20.501Z,992.43
2019-01-16T12:12:20.504Z,992.40
2019-01-16T12:13:20.487Z,992.40
2019-01-16T12:14:20.477Z,992.32
2019-01-16T12:15:20.453Z,992.32
2019-01-16T12:16:20.451Z,992.33
2019-01-16T12:17:20.448Z,992.24
2019-01-16T12:18:20.433Z,992.28
2019-01-16T12:19:20.446Z,992.24
2019-01-16T12:20:20.465Z,992.17
2019-01-16T12:21:26.282Z,992.21
2019-01-16T12:22:46.145Z,992.18
2019-01-16T12:23:46.003Z,992.09
2019-01-16T12:24:45.958Z,992.04
2019-01-16T12:25:45.940Z,991.95
2019-01-16T12:26:45.974Z,991.89
2019-01-16T12:27:45.928Z,991.77
2019-01-16T12:28:45.902Z,991.76
2019-01-16T12:29:45.882Z,991.76
2019-01-16T12:30:45.891Z,991.69
2019-01-16T12:31:45.886Z,991.70
2019-01-16T12:32:45.871Z,991.73
2019-01-16T12:33:45.865Z,991.76
2019-01-16T12:34:45.849Z,991.76
2019-01-16T12:35:45.825Z,991.75
2019-01-16T12:36:45.820Z,991.74
2019-01-16T12:37:45.805Z,991.67
2019-01-16T12:38:45.784Z,991.70
2019-01-16T12:39:45.855Z,991.60
2019-01-16T12:40:45.770Z,991.58
2019-01-16T12:41:45.822Z,991.63
2019-01-16T12:42:45.768Z,991.63
2019-01-16T12:43:45.742Z,991.64
2019-01-16T12:44:45.744Z,991.57
2019-01-16T12:45:45.715Z,991.59
2019-01-16T12:46:45.708Z,991.55
2019-01-16T12:47:45.686Z,991.56
2019-01-16T12:48:45.700Z,991.54
2019-01-16T12:49:45.675Z,991.50
2019-01-16T12:50:45.681Z,991.46
2019-01-16T12:51:46.650Z,991.47
2019-01-16T12:52:45.665Z,991.47
2019-01-16T12:53:45.702Z,991.47
2019-01-16T12:54:45.639Z,991.42
2019-01-16T12:55:45.637Z,991.42
2019-01-16T12:56:45.650Z,991.38
2019-01-16T12:57:45.586Z,991.37
2019-01-16T12:58:45.597Z,991.37
2019-01-16T12:59:45.560Z,991.34
2019-01-16T13:00:45.579Z,991.29
2019-01-16T13:01:45.543Z,991.19
2019-01-16T13:02:45.529Z,991.17
2019-01-16T13:03:45.539Z,991.12
2019-01-16T13:04:45.533Z,991.06
2019-01-16T13:05:45.558Z,991.05
2019-01-16T13:06:45.500Z,991.04
2019-01-16T13:07:45.476Z,990.93
2019-01-16T13:08:45.490Z,990.88
2019-01-16T13:09:45.453Z,990.84
2019-01-16T13:10:45.467Z,990.84
2019-01-16T13:11:45.447Z,990.82
2019-01-16T13:12:45.420Z,990.82
2019-01-16T13:13:48.520Z,990.82
2019-01-16T13:14:45.400Z,990.82
2019-01-16T13:15:45.407Z,990.85
2019-01-16T13:16:45.462Z,990.79
2019-01-16T13:17:45.444Z,990.73
2019-01-16T13:18:48.999Z,990.76
2019-01-16T13:19:45.337Z,990.74
2019-01-16T13:20:45.337Z,990.71
2019-01-16T13:21:45.323Z,990.68
2019-01-16T13:22:46.251Z,990.66
2019-01-16T13:23:45.329Z,990.60
2019-01-16T13:24:45.329Z,990.60
2019-01-16T13:25:45.287Z,990.55
2019-01-16T13:26:45.278Z,990.59
2019-01-16T13:27:45.251Z,990.59
2019-01-16T13:28:45.240Z,990.63
2019-01-16T13:29:45.235Z,990.55
2019-01-16T13:30:45.217Z,990.50
2019-01-16T13:31:45.214Z,990.53
2019-01-16T13:32:45.214Z,990.51
2019-01-16T13:33:45.207Z,990.51
2019-01-16T13:34:45.191Z,990.50
2019-01-16T13:35:45.806Z,990.52
2019-01-16T13:36:45.150Z,990.49
2019-01-16T13:37:45.152Z,990.53
2019-01-16T13:38:46.024Z,990.52
2019-01-16T13:39:45.190Z,990.48
2019-01-16T13:40:45.108Z,990.50
2019-01-16T13:41:45.550Z,990.50
2019-01-16T13:42:45.123Z,990.45
2019-01-16T13:43:45.097Z,990.44
2019-01-16T13:44:45.069Z,990.40
2019-01-16T13:45:47.088Z,990.44
2019-01-16T13:47:09.684Z,990.38
2019-01-16T13:48:09.838Z,990.38
2019-01-16T13:49:09.655Z,990.36
2019-01-16T13:50:11.564Z,990.36
2019-01-16T13:51:09.653Z,990.34
2019-01-16T13:52:09.619Z,990.35
2019-01-16T13:53:09.655Z,990.33
2019-01-16T13:54:09.813Z,990.33
2019-01-16T13:55:09.598Z,990.31
2019-01-16T13:56:09.573Z,990.23
2019-01-16T13:57:09.606Z,990.26
2019-01-16T13:58:09.564Z,990.20
2019-01-16T13:59:09.562Z,990.11
2019-01-16T14:00:19.995Z,990.07
2019-01-16T14:01:10.543Z,990.04
2019-01-16T14:02:09.529Z,990.03
2019-01-16T14:03:09.522Z,989.96
2019-01-16T14:04:09.495Z,989.99
2019-01-16T14:05:09.539Z,989.98
2019-01-16T14:06:09.474Z,989.96
2019-01-16T14:07:09.485Z,989.89
2019-01-16T14:08:09.894Z,989.86
2019-01-16T14:09:09.445Z,989.88
2019-01-16T14:10:09.449Z,989.88
2019-01-16T14:11:09.418Z,989.83
2019-01-16T14:12:09.400Z,989.79
2019-01-16T14:13:09.399Z,989.84
2019-01-16T14:14:09.389Z,989.80
2019-01-16T14:15:09.707Z,989.83
2019-01-16T14:16:10.359Z,989.81
2019-01-16T14:17:09.347Z,989.80
2019-01-16T14:18:09.490Z,989.74
2019-01-16T14:19:09.413Z,989.76
2019-01-16T14:20:09.319Z,989.81
2019-01-16T14:21:09.413Z,989.81
2019-01-16T14:22:09.419Z,989.80
2019-01-16T14:23:09.293Z,989.80
2019-01-16T14:24:09.300Z,989.73
2019-01-16T14:25:09.319Z,989.76
2019-01-16T14:26:09.257Z,989.76
2019-01-16T14:27:09.259Z,989.71
2019-01-16T14:28:09.243Z,989.69
2019-01-16T14:29:11.843Z,989.60
2019-01-16T14:30:21.239Z,989.60
2019-01-16T14:31:10.217Z,989.58
2019-01-16T14:32:15.115Z,989.52
2019-01-16T14:33:10.202Z,989.53
2019-01-16T14:34:09.165Z,989.52
2019-01-16T14:35:09.148Z,989.52
2019-01-16T14:36:09.298Z,989.59
2019-01-16T14:37:09.215Z,989.54
2019-01-16T14:38:09.121Z,989.52
2019-01-16T14:39:09.176Z,989.53
2019-01-16T14:40:09.105Z,989.55
2019-01-16T14:41:09.165Z,989.59
2019-01-16T14:42:09.244Z,989.55
2019-01-16T14:43:09.146Z,989.49
2019-01-16T14:44:09.068Z,989.46
2019-01-16T14:45:10.865Z,989.45
2019-01-16T14:46:09.066Z,989.48
2019-01-16T14:47:09.013Z,989.49
2019-01-16T14:48:09.045Z,989.45
2019-01-16T14:49:08.992Z,989.43
2019-01-16T14:50:08.986Z,989.35
2019-01-16T14:51:08.993Z,989.38
2019-01-16T14:52:08.974Z,989.41
2019-01-16T14:53:08.975Z,989.41
2019-01-16T14:54:08.949Z,989.45
2019-01-16T14:55:08.940Z,989.38
2019-01-16T14:56:08.918Z,989.36
2019-01-16T14:57:08.938Z,989.35
2019-01-16T14:58:08.901Z,989.30
2019-01-16T14:59:09.387Z,989.31
2019-01-16T15:00:09.386Z,989.27
2019-01-16T15:01:08.862Z,989.28
2019-01-16T15:02:08.924Z,989.29
2019-01-16T15:03:08.897Z,989.32
2019-01-16T15:04:08.849Z,989.36
2019-01-16T15:05:08.825Z,989.30
2019-01-16T15:06:08.810Z,989.32
2019-01-16T15:07:08.821Z,989.27
2019-01-16T15:08:08.816Z,989.23
2019-01-16T15:09:08.825Z,989.18
2019-01-16T15:10:08.791Z,989.22
2019-01-16T15:11:08.755Z,989.21
2019-01-16T15:12:08.775Z,989.17
2019-01-16T15:13:08.736Z,989.12
2019-01-16T15:14:08.725Z,989.10
2019-01-16T15:15:10.957Z,989.09
2019-01-16T15:16:09.728Z,989.10
2019-01-16T15:17:08.747Z,989.13
2019-01-16T15:18:08.751Z,989.08
2019-01-16T15:19:08.670Z,989.12
2019-01-16T15:20:08.658Z,989.05
2019-01-16T15:21:08.658Z,989.03
2019-01-16T15:22:08.634Z,988.97
2019-01-16T15:23:08.632Z,988.96
2019-01-16T15:24:08.668Z,988.99
2019-01-16T15:25:08.607Z,989.01
2019-01-16T15:26:08.600Z,989.02
2019-01-16T15:27:08.581Z,988.97
2019-01-16T15:28:08.587Z,989.02
2019-01-16T15:29:08.597Z,988.90
2019-01-16T15:30:16.536Z,988.93
2019-01-16T15:31:09.538Z,988.87
2019-01-16T15:32:08.534Z,988.87
2019-01-16T15:33:08.515Z,988.82
2019-01-16T15:34:08.507Z,988.79
2019-01-16T15:35:08.510Z,988.82
2019-01-16T15:36:08.536Z,988.85
2019-01-16T15:37:08.476Z,988.82
2019-01-16T15:38:08.469Z,988.84
2019-01-16T15:39:08.519Z,988.76
2019-01-16T15:40:11.168Z,988.74
2019-01-16T15:41:08.496Z,988.80
2019-01-16T15:42:08.445Z,988.80
2019-01-16T15:43:08.416Z,988.85
2019-01-16T15:44:08.492Z,988.87
2019-01-16T15:45:19.068Z,988.79
2019-01-16T15:46:09.378Z,988.84
2019-01-16T15:47:08.382Z,988.82
2019-01-16T15:48:08.361Z,988.84
2019-01-16T15:49:08.344Z,988.87
2019-01-16T15:50:08.342Z,988.83
2019-01-16T15:51:08.328Z,988.77
2019-01-16T15:52:12.949Z,988.80
2019-01-16T15:53:08.298Z,988.81
2019-01-16T15:54:08.302Z,988.80
2019-01-16T15:55:08.294Z,988.76
2019-01-16T15:56:08.266Z,988.74
2019-01-16T15:57:08.259Z,988.72
2019-01-16T15:58:08.458Z,988.75
2019-01-16T15:59:08.239Z,988.72
2019-01-16T16:00:13.609Z,988.68
2019-01-16T16:01:08.215Z,988.64
2019-01-16T16:02:08.250Z,988.65
2019-01-16T16:03:08.195Z,988.66
2019-01-16T16:04:08.189Z,988.63
2019-01-16T16:05:08.746Z,988.62
2019-01-16T16:06:08.190Z,988.60
2019-01-16T16:07:08.158Z,988.63
2019-01-16T16:08:08.159Z,988.62
2019-01-16T16:09:09.566Z,988.61
2019-01-16T16:10:08.117Z,988.60
2019-01-16T16:11:08.159Z,988.63
2019-01-16T16:12:08.124Z,988.53
2019-01-16T16:13:08.087Z,988.46
2019-01-16T16:14:08.073Z,988.40
2019-01-16T16:15:08.065Z,988.40
2019-01-16T16:16:08.056Z,988.36
2019-01-16T16:17:08.043Z,988.36
2019-01-16T16:18:08.047Z,988.28
2019-01-16T16:19:09.024Z,988.26
2019-01-16T16:20:08.019Z,988.26
2019-01-16T16:21:08.052Z,988.28
2019-01-16T16:22:07.989Z,988.24
2019-01-16T16:23:07.988Z,988.27
2019-01-16T16:24:07.973Z,988.26
2019-01-16T16:25:07.954Z,988.23
2019-01-16T16:26:07.998Z,988.25
2019-01-16T16:27:07.931Z,988.26
2019-01-16T16:28:07.979Z,988.22
2019-01-16T16:29:07.914Z,988.17
2019-01-16T16:30:14.044Z,988.24
2019-01-16T16:31:32.972Z,988.24
2019-01-16T16:32:32.997Z,988.27
2019-01-16T16:33:33.000Z,988.21
2019-01-16T16:34:32.940Z,988.19
2019-01-16T16:35:32.935Z,988.18
2019-01-16T16:36:32.933Z,988.15
2019-01-16T16:37:32.915Z,988.10
2019-01-16T16:38:32.891Z,988.10
2019-01-16T16:39:32.906Z,988.14
2019-01-16T16:40:32.873Z,988.12
2019-01-16T16:41:32.862Z,988.12
2019-01-16T16:42:32.852Z,988.11
2019-01-16T16:43:32.856Z,988.07
2019-01-16T16:44:32.826Z,988.02
2019-01-16T16:45:33.032Z,988.05
2019-01-16T16:46:32.817Z,988.03
2019-01-16T16:47:32.796Z,987.98
2019-01-16T16:48:32.780Z,987.90
2019-01-16T16:49:32.777Z,987.86
2019-01-16T16:50:32.763Z,987.87
2019-01-16T16:51:32.751Z,987.87
2019-01-16T16:52:32.740Z,987.86
2019-01-16T16:53:32.728Z,987.82
2019-01-16T16:54:32.717Z,987.91
2019-01-16T16:55:32.721Z,987.87
2019-01-16T16:56:32.696Z,987.85
2019-01-16T16:57:32.814Z,987.85
2019-01-16T16:58:32.674Z,987.87
2019-01-16T16:59:32.712Z,987.89
2019-01-16T17:00:32.659Z,987.81
2019-01-16T17:01:32.719Z,987.81
2019-01-16T17:02:32.630Z,987.77
2019-01-16T17:03:32.626Z,987.72
2019-01-16T17:04:32.612Z,987.68
2019-01-16T17:05:32.931Z,987.70
2019-01-16T17:06:32.604Z,987.74
2019-01-16T17:07:32.640Z,987.76
2019-01-16T17:08:32.653Z,987.76
2019-01-16T17:09:32.558Z,987.76
2019-01-16T17:10:32.542Z,987.75
2019-01-16T17:11:32.569Z,987.71
2019-01-16T17:12:32.527Z,987.67
2019-01-16T17:13:32.528Z,987.70
2019-01-16T17:14:32.524Z,987.75
2019-01-16T17:15:32.689Z,987.70
2019-01-16T17:16:32.616Z,987.72
2019-01-16T17:17:32.497Z,987.63
2019-01-16T17:18:32.464Z,987.62
2019-01-16T17:19:32.447Z,987.59
2019-01-16T17:20:32.445Z,987.56
2019-01-16T17:21:32.493Z,987.55
2019-01-16T17:22:32.571Z,987.60
2019-01-16T17:23:32.410Z,987.62
2019-01-16T17:24:32.390Z,987.66
2019-01-16T17:25:32.385Z,987.66
2019-01-16T17:26:33.379Z,987.58
2019-01-16T17:27:32.376Z,987.60
2019-01-16T17:28:32.345Z,987.65
2019-01-16T17:29:32.330Z,987.59
2019-01-16T17:30:32.323Z,987.56
2019-01-16T17:31:32.316Z,987.57
2019-01-16T17:32:32.314Z,987.56
2019-01-16T17:33:32.307Z,987.52
2019-01-16T17:34:32.285Z,987.50
2019-01-16T17:35:32.272Z,987.45
2019-01-16T17:36:32.262Z,987.46
2019-01-16T17:37:32.266Z,987.44
2019-01-16T17:38:32.242Z,987.48
2019-01-16T17:39:32.233Z,987.46
2019-01-16T17:40:32.219Z,987.45
2019-01-16T17:41:32.212Z,987.42
2019-01-16T17:42:32.193Z,987.48
2019-01-16T17:43:32.330Z,987.43
2019-01-16T17:44:32.183Z,987.45
2019-01-16T17:45:32.235Z,987.43
2019-01-16T17:46:32.150Z,987.38
2019-01-16T17:47:32.170Z,987.48
2019-01-16T17:48:32.135Z,987.50
2019-01-16T17:49:32.115Z,987.40
2019-01-16T17:50:32.113Z,987.42
2019-01-16T17:51:32.091Z,987.30
2019-01-16T17:52:32.081Z,987.36
2019-01-16T17:53:32.119Z,987.39
2019-01-16T17:54:32.070Z,987.38
2019-01-16T17:55:32.051Z,987.35
2019-01-16T17:56:32.061Z,987.32
2019-01-16T17:57:32.038Z,987.33
2019-01-16T17:58:32.072Z,987.29
2019-01-16T17:59:32.034Z,987.31
2019-01-16T18:00:31.997Z,987.33
2019-01-16T18:01:31.995Z,987.32
2019-01-16T18:02:32.035Z,987.31
2019-01-16T18:03:31.962Z,987.30
2019-01-16T18:04:31.951Z,987.36
2019-01-16T18:05:31.952Z,987.33
2019-01-16T18:06:31.935Z,987.36
2019-01-16T18:07:31.919Z,987.33
2019-01-16T18:08:31.911Z,987.32
2019-01-16T18:09:32.050Z,987.38
2019-01-16T18:10:31.928Z,987.34
2019-01-16T18:11:31.935Z,987.33
2019-01-16T18:12:31.861Z,987.29
2019-01-16T18:13:31.854Z,987.29
2019-01-16T18:14:31.909Z,987.31
2019-01-16T18:15:31.837Z,987.32
2019-01-16T18:16:31.826Z,987.28
2019-01-16T18:17:31.815Z,987.28
2019-01-16T18:18:31.805Z,987.29
2019-01-16T18:19:31.793Z,987.32
2019-01-16T18:20:31.776Z,987.32
2019-01-16T18:21:31.779Z,987.33
2019-01-16T18:22:31.824Z,987.28
2019-01-16T18:23:31.751Z,987.32
2019-01-16T18:24:31.745Z,987.34
2019-01-16T18:25:31.720Z,987.29
2019-01-16T18:26:31.714Z,987.25
2019-01-16T18:27:31.699Z,987.35
2019-01-16T18:28:31.723Z,987.37
2019-01-16T18:29:31.704Z,987.32
2019-01-16T18:30:31.665Z,987.35
2019-01-16T18:31:31.687Z,987.32
2019-01-16T18:32:31.664Z,987.38
2019-01-16T18:33:31.660Z,987.28
2019-01-16T18:34:31.622Z,987.32
2019-01-16T18:35:31.624Z,987.38
2019-01-16T18:36:31.599Z,987.39
2019-01-16T18:37:31.594Z,987.40
2019-01-16T18:38:31.584Z,987.38
2019-01-16T18:39:31.576Z,987.38
2019-01-16T18:40:31.559Z,987.32
2019-01-16T18:41:31.541Z,987.38
2019-01-16T18:42:31.535Z,987.39
2019-01-16T18:43:31.572Z,987.39
2019-01-16T18:44:31.518Z,987.45
2019-01-16T18:45:31.571Z,987.46
2019-01-16T18:46:31.499Z,987.46
2019-01-16T18:47:31.488Z,987.43
2019-01-16T18:48:32.431Z,987.40
2019-01-16T18:49:31.484Z,987.44
2019-01-16T18:50:31.450Z,987.44
2019-01-16T18:51:31.453Z,987.40
2019-01-16T18:52:31.659Z,987.44
2019-01-16T18:53:31.416Z,987.42
2019-01-16T18:54:31.406Z,987.46
2019-01-16T18:55:31.400Z,987.45
2019-01-16T18:56:31.394Z,987.48
2019-01-16T18:57:31.378Z,987.46
2019-01-16T18:58:31.362Z,987.48
2019-01-16T18:59:31.354Z,987.44
2019-01-16T19:00:31.342Z,987.48
2019-01-16T19:01:31.339Z,987.45
2019-01-16T19:02:31.341Z,987.44
2019-01-16T19:03:31.314Z,987.40
2019-01-16T19:04:31.296Z,987.36
2019-01-16T19:05:31.341Z,987.29
2019-01-16T19:06:31.276Z,987.30
2019-01-16T19:07:31.327Z,987.28
2019-01-16T19:08:31.261Z,987.33
2019-01-16T19:09:31.241Z,987.25
2019-01-16T19:10:31.242Z,987.28
2019-01-16T19:11:31.214Z,987.23
2019-01-16T19:12:31.203Z,987.26
2019-01-16T19:13:31.199Z,987.27
2019-01-16T19:14:31.186Z,987.24
2019-01-16T19:15:31.185Z,987.30
2019-01-16T19:16:31.168Z,987.33
2019-01-16T19:17:31.153Z,987.31